Metar
Geneve

LSGG 150750Z 05016KT 9999 SCT025 05/M03 Q1022 NOSIG

Payerne

LSMP 150750Z 06012KT 020V080 CAVOK 04/M02 Q1023 RMK BLU

Eplatures

LSGC 051550Z 13006KT 080V170 CAVOK 15/M05 Q1019

Berne

LSZB 150750Z 10004KT 050V140 9999 FEW028 04/M03 Q1023 NOSIG

Granges

LSZG 150750Z 08016KT 9999 FEW045 05/M02 Q1024 NOSIG

Sion

LSGS 150750Z 25003KT 190V300 9999 SCT030 SCT070 05/M03 Q1021

Annecy

LFLP 150800Z AUTO VRB03KT 9999 OVC026 06/M01 Q1022 NOSIG

Taf
Geneve

TAF TAF LSGG 150525Z 1506/1612 03007KT 9999 FEW030 TX09/1515Z TN03/1506Z TN02/1605Z BECMG 1510/1512 03017KT BECMG 1520/1522 03007KT

Eplatures

TAF AMD TAF AMD LSGC 270646Z 2706/2718 VRB03KT 9000 OVC015 BECMG 2712/2715 9999 SCT020

Berne

TAF AMD TAF AMD LSZB 222054Z 2220/2224 CNL

Granges

TAF AMD LSZG 222054Z 2220/2224 CNL

Sion

TAF AMD LSGS 242023Z 2415/2424 CNL

Annecy

TAF AMD LFLP 141926Z 1419/1515 CNL